createdAt,value
2018-03-02T00:01:20.311Z,-1.01
2018-03-02T00:03:48.787Z,-1.04
2018-03-02T00:06:17.039Z,-0.91
2018-03-02T00:08:45.328Z,-1.10
2018-03-02T00:11:13.673Z,-1.15
2018-03-02T00:13:42.079Z,-1.46
2018-03-02T00:16:10.339Z,-1.47
2018-03-02T00:18:38.623Z,-1.41
2018-03-02T00:21:06.903Z,-1.39
2018-03-02T00:23:35.284Z,-1.21
2018-03-02T00:26:03.599Z,-1.36
2018-03-02T00:28:31.902Z,-1.17
2018-03-02T00:31:00.308Z,-1.16
2018-03-02T00:33:30.605Z,-1.30
2018-03-02T00:35:59.653Z,-1.25
2018-03-02T00:38:28.032Z,-1.38
2018-03-02T00:40:56.248Z,-1.26
2018-03-02T00:43:24.512Z,-1.39
2018-03-02T00:45:53.568Z,-1.46
2018-03-02T00:48:21.867Z,-1.41
2018-03-02T00:50:50.960Z,-1.45
2018-03-02T00:53:19.452Z,-1.48
2018-03-02T00:55:48.479Z,-1.61
2018-03-02T00:58:16.779Z,-1.63
2018-03-02T01:00:45.063Z,-1.56
2018-03-02T01:03:13.364Z,-1.53
2018-03-02T01:05:42.402Z,-1.57
2018-03-02T01:08:10.680Z,-1.63
2018-03-02T01:10:38.954Z,-1.52
2018-03-02T01:13:07.264Z,-1.66
2018-03-02T01:15:36.184Z,-1.55
2018-03-02T01:18:04.472Z,-1.56
2018-03-02T01:20:32.877Z,-1.76
2018-03-02T01:23:01.154Z,-1.60
2018-03-02T01:25:29.434Z,-1.76
2018-03-02T01:27:58.747Z,-1.99
2018-03-02T01:30:27.042Z,-1.96
2018-03-02T01:32:55.439Z,-1.84
2018-03-02T01:35:24.484Z,-1.97
2018-03-02T01:37:52.812Z,-1.72
2018-03-02T01:40:21.155Z,-1.86
2018-03-02T01:42:49.495Z,-1.81
2018-03-02T01:45:17.911Z,-1.84
2018-03-02T01:47:46.291Z,-1.93
2018-03-02T01:50:14.665Z,-2.26
2018-03-02T01:52:43.851Z,-2.11
2018-03-02T01:55:12.168Z,-2.09
2018-03-02T01:57:40.449Z,-1.99
2018-03-02T02:00:09.583Z,-2.12
2018-03-02T02:02:38.042Z,-2.47
2018-03-02T02:05:07.268Z,-2.25
2018-03-02T02:07:35.701Z,-2.17
2018-03-02T02:10:04.732Z,-2.33
2018-03-02T02:12:33.117Z,-2.34
2018-03-02T02:15:01.432Z,-2.29
2018-03-02T02:17:30.474Z,-2.50
2018-03-02T02:19:58.975Z,-2.40
2018-03-02T02:22:27.846Z,-2.55
2018-03-02T02:24:56.113Z,-2.45
2018-03-02T02:27:24.395Z,-2.44
2018-03-02T02:29:52.721Z,-2.49
2018-03-02T02:32:21.746Z,-2.31
2018-03-02T02:34:50.032Z,-2.40
2018-03-02T02:37:18.276Z,-2.46
2018-03-02T02:39:46.558Z,-2.51
2018-03-02T02:42:14.827Z,-2.58
2018-03-02T02:44:43.942Z,-2.45
2018-03-02T02:47:12.330Z,-2.57
2018-03-02T02:49:40.583Z,-2.63
2018-03-02T02:52:08.877Z,-2.64
2018-03-02T02:54:37.126Z,-2.71
2018-03-02T02:57:05.407Z,-2.72
2018-03-02T02:59:33.667Z,-2.73
2018-03-02T03:02:02.054Z,-2.69
2018-03-02T03:04:30.360Z,-2.68
2018-03-02T03:06:58.683Z,-2.81
2018-03-02T03:09:28.456Z,-2.82
2018-03-02T03:11:56.783Z,-2.84
2018-03-02T03:14:25.806Z,-2.74
2018-03-02T03:16:54.085Z,-2.94
2018-03-02T03:19:22.389Z,-2.89
2018-03-02T03:21:50.675Z,-2.71
2018-03-02T03:24:18.952Z,-2.87
2018-03-02T03:26:47.206Z,-2.75
2018-03-02T03:29:15.487Z,-2.79
2018-03-02T03:31:43.827Z,-2.76
2018-03-02T03:34:12.111Z,-2.75
2018-03-02T03:36:40.383Z,-2.79
2018-03-02T03:39:08.691Z,-2.72
2018-03-02T03:41:36.963Z,-3.01
2018-03-02T03:44:05.270Z,-3.11
2018-03-02T03:46:34.321Z,-3.00
2018-03-02T03:49:02.582Z,-3.10
2018-03-02T03:51:30.862Z,-2.96
2018-03-02T03:53:59.125Z,-3.06
2018-03-02T03:56:27.619Z,-3.26
2018-03-02T03:58:55.977Z,-3.11
2018-03-02T04:01:24.287Z,-3.00
2018-03-02T04:03:52.601Z,-2.97
2018-03-02T04:06:21.610Z,-3.03
2018-03-02T04:08:49.912Z,-3.04
2018-03-02T04:11:18.395Z,-3.26
2018-03-02T04:13:46.649Z,-3.32
2018-03-02T04:16:14.903Z,-3.05
2018-03-02T04:18:43.203Z,-3.11
2018-03-02T04:21:11.487Z,-3.22
2018-03-02T04:23:40.503Z,-3.26
2018-03-02T04:26:08.831Z,-3.09
2018-03-02T04:28:38.282Z,-3.11
2018-03-02T04:31:06.551Z,-3.36
2018-03-02T04:33:34.827Z,-3.29
2018-03-02T04:36:03.809Z,-3.24
2018-03-02T04:38:32.127Z,-3.33
2018-03-02T04:41:01.253Z,-3.37
2018-03-02T04:43:29.558Z,-3.37
2018-03-02T04:45:57.946Z,-3.39
2018-03-02T04:48:26.219Z,-3.46
2018-03-02T04:50:54.493Z,-3.44
2018-03-02T04:53:22.773Z,-3.46
2018-03-02T04:55:51.041Z,-3.36
2018-03-02T04:58:19.315Z,-3.31
2018-03-02T05:00:47.578Z,-3.25
2018-03-02T05:03:15.890Z,-3.34
2018-03-02T05:05:44.249Z,-3.23
2018-03-02T05:08:12.507Z,-3.44
2018-03-02T05:10:40.889Z,-3.35
2018-03-02T05:13:09.160Z,-3.22
2018-03-02T05:15:37.436Z,-3.27
2018-03-02T05:18:05.704Z,-3.35
2018-03-02T05:20:34.186Z,-3.33
2018-03-02T05:23:02.491Z,-3.33
2018-03-02T05:25:30.784Z,-3.36
2018-03-02T05:27:59.826Z,-3.33
2018-03-02T05:30:28.132Z,-3.42
2018-03-02T05:32:56.399Z,-3.52
2018-03-02T05:35:24.963Z,-3.53
2018-03-02T05:37:53.456Z,-3.45
2018-03-02T05:40:22.184Z,-3.40
2018-03-02T05:42:52.203Z,-3.50
2018-03-02T05:45:20.524Z,-3.57
2018-03-02T05:47:48.793Z,-3.57
2018-03-02T05:50:17.063Z,-3.46
2018-03-02T05:52:45.577Z,-3.25
2018-03-02T05:55:13.836Z,-3.53
2018-03-02T05:57:42.143Z,-3.38
2018-03-02T06:00:11.183Z,-3.47
2018-03-02T06:02:39.505Z,-3.42
2018-03-02T06:05:07.803Z,-3.36
2018-03-02T06:07:36.095Z,-3.60
2018-03-02T06:10:04.494Z,-3.66
2018-03-02T06:12:32.764Z,-3.72
2018-03-02T06:15:01.027Z,-3.55
2018-03-02T06:17:29.356Z,-3.52
2018-03-02T06:19:57.681Z,-3.44
2018-03-02T06:22:26.109Z,-3.27
2018-03-02T06:24:56.338Z,-3.04
2018-03-02T06:27:25.447Z,-2.75
2018-03-02T06:29:54.580Z,-2.89
2018-03-02T06:32:22.912Z,-2.59
2018-03-02T06:34:52.312Z,-2.74
2018-03-02T06:37:20.704Z,-3.03
2018-03-02T06:39:49.872Z,-2.93
2018-03-02T06:42:18.249Z,-3.14
2018-03-02T06:44:46.529Z,-3.27
2018-03-02T06:47:14.932Z,-3.06
2018-03-02T06:49:43.976Z,-3.09
2018-03-02T06:52:12.392Z,-3.05
2018-03-02T06:54:41.573Z,-3.02
2018-03-02T06:57:10.620Z,-3.08
2018-03-02T06:59:38.912Z,-3.04
2018-03-02T07:02:07.188Z,-2.82
2018-03-02T07:04:35.539Z,-3.31
2018-03-02T07:07:04.544Z,-3.16
2018-03-02T07:09:32.813Z,-2.98
2018-03-02T07:12:01.086Z,-2.97
2018-03-02T07:14:29.367Z,-3.08
2018-03-02T07:16:58.002Z,-2.94
2018-03-02T07:19:28.577Z,-2.67
2018-03-02T07:21:56.856Z,-2.88
2018-03-02T07:24:25.197Z,-3.02
2018-03-02T07:26:53.451Z,-2.86
2018-03-02T07:29:22.608Z,-2.73
2018-03-02T07:31:51.596Z,-2.67
2018-03-02T07:34:20.056Z,-2.63
2018-03-02T07:36:48.337Z,-2.60
2018-03-02T07:39:16.630Z,-2.79
2018-03-02T07:41:44.890Z,-2.81
2018-03-02T07:44:13.232Z,-2.93
2018-03-02T07:46:41.464Z,-3.02
2018-03-02T07:49:09.815Z,-2.95
2018-03-02T07:51:38.689Z,-3.01
2018-03-02T07:54:07.005Z,-2.79
2018-03-02T07:56:35.291Z,-2.82
2018-03-02T07:59:03.549Z,-2.62
2018-03-02T08:01:31.832Z,-2.76
2018-03-02T08:04:00.097Z,-2.91
2018-03-02T08:06:28.428Z,-3.10
2018-03-02T08:08:57.463Z,-2.68
2018-03-02T08:11:25.753Z,-2.45
2018-03-02T08:13:54.083Z,-2.15
2018-03-02T08:16:22.449Z,-2.65
2018-03-02T08:18:51.484Z,-2.49
2018-03-02T08:21:20.065Z,-2.56
2018-03-02T08:23:48.356Z,-2.58
2018-03-02T08:26:16.808Z,-2.34
2018-03-02T08:28:46.307Z,-2.21
2018-03-02T08:31:16.604Z,-2.16
2018-03-02T08:33:44.891Z,-2.27
2018-03-02T08:36:13.165Z,-1.94
2018-03-02T08:38:41.532Z,-1.85
2018-03-02T08:41:14.892Z,-2.20
2018-03-02T08:43:43.150Z,-2.00
2018-03-02T08:46:11.427Z,-2.40
2018-03-02T08:48:39.793Z,-2.16
2018-03-02T08:51:08.079Z,-1.93
2018-03-02T08:53:36.419Z,-1.95
2018-03-02T08:56:04.803Z,-1.94
2018-03-02T08:58:33.111Z,-1.83
2018-03-02T09:01:01.451Z,-1.64
2018-03-02T09:03:29.855Z,-1.70
2018-03-02T09:05:58.280Z,-1.61
2018-03-02T09:08:27.325Z,-1.49
2018-03-02T09:10:55.583Z,-1.43
2018-03-02T09:13:24.683Z,-1.66
2018-03-02T09:15:52.957Z,-2.35
2018-03-02T09:18:21.422Z,-1.72
2018-03-02T09:20:49.702Z,-1.66
2018-03-02T09:23:17.992Z,-1.59
2018-03-02T09:25:46.446Z,-1.28
2018-03-02T09:28:14.811Z,-1.52
2018-03-02T09:30:43.088Z,-1.52
2018-03-02T09:33:11.376Z,-1.30
2018-03-02T09:35:39.811Z,-1.15
2018-03-02T09:38:08.147Z,-1.28
2018-03-02T09:40:36.536Z,-1.59
2018-03-02T09:43:04.968Z,-1.32
2018-03-02T09:45:34.763Z,-0.79
2018-03-02T09:48:04.644Z,-0.75
2018-03-02T09:50:32.925Z,-1.05
2018-03-02T09:53:01.245Z,-1.09
2018-03-02T09:55:29.907Z,-0.83
2018-03-02T09:57:58.515Z,-0.56
2018-03-02T10:00:27.774Z,-0.78
2018-03-02T10:02:56.217Z,-0.92
2018-03-02T10:05:24.493Z,-1.05
2018-03-02T10:07:52.765Z,-0.90
2018-03-02T10:10:21.078Z,-0.47
2018-03-02T10:12:49.391Z,1.31
2018-03-02T10:15:18.434Z,0.89
2018-03-02T10:17:46.726Z,0.71
2018-03-02T10:20:15.023Z,1.31
2018-03-02T10:22:43.343Z,1.65
2018-03-02T10:25:11.626Z,1.37
2018-03-02T10:27:39.927Z,1.48
2018-03-02T10:30:08.945Z,1.22
2018-03-02T10:32:37.258Z,1.41
2018-03-02T10:35:05.653Z,1.39
2018-03-02T10:37:33.933Z,0.96
2018-03-02T10:40:02.287Z,0.69
2018-03-02T10:42:30.681Z,0.93
2018-03-02T10:45:02.058Z,1.60
2018-03-02T10:47:30.345Z,1.45
2018-03-02T10:49:59.489Z,1.25
2018-03-02T10:52:27.869Z,1.17
2018-03-02T10:54:56.110Z,1.43
2018-03-02T10:57:24.476Z,1.32
2018-03-02T10:59:53.515Z,1.22
2018-03-02T11:02:21.822Z,1.29
2018-03-02T11:04:50.082Z,1.41
2018-03-02T11:07:18.352Z,1.87
2018-03-02T11:09:46.638Z,1.95
2018-03-02T11:12:15.036Z,1.57
2018-03-02T11:14:43.464Z,1.72
2018-03-02T11:17:11.735Z,1.47
2018-03-02T11:19:40.640Z,1.41
2018-03-02T11:22:08.902Z,1.60
2018-03-02T11:24:37.210Z,1.34
2018-03-02T11:27:05.511Z,0.93
2018-03-02T11:29:34.540Z,1.26
2018-03-02T11:32:02.836Z,1.14
2018-03-02T11:34:31.099Z,1.09
2018-03-02T11:36:59.383Z,1.16
2018-03-02T11:39:28.820Z,1.15
2018-03-02T11:41:57.153Z,0.81
2018-03-02T11:44:25.497Z,1.23
2018-03-02T11:46:54.599Z,1.20
2018-03-02T11:49:23.022Z,1.31
2018-03-02T11:51:51.288Z,1.46
2018-03-02T11:54:19.771Z,2.06
2018-03-02T11:56:48.036Z,2.06
2018-03-02T11:59:17.299Z,2.06
2018-03-02T12:01:45.565Z,1.85
2018-03-02T12:04:14.806Z,1.85
2018-03-02T12:06:43.118Z,2.15
2018-03-02T12:09:11.558Z,2.20
2018-03-02T12:11:40.670Z,2.18
2018-03-02T12:14:08.933Z,2.13
2018-03-02T12:16:37.265Z,2.25
2018-03-02T12:19:06.302Z,2.04
2018-03-02T12:21:35.392Z,2.03
2018-03-02T12:24:03.712Z,1.82
2018-03-02T12:26:32.793Z,1.90
2018-03-02T12:29:02.183Z,2.03
2018-03-02T12:31:30.474Z,1.93
2018-03-02T12:34:00.262Z,1.54
2018-03-02T12:36:33.823Z,1.55
2018-03-02T12:39:02.091Z,2.10
2018-03-02T12:41:30.351Z,2.02
2018-03-02T12:43:59.424Z,1.93
2018-03-02T12:46:27.703Z,1.63
2018-03-02T12:48:56.772Z,1.98
2018-03-02T12:51:25.462Z,2.04
2018-03-02T12:53:53.727Z,2.17
2018-03-02T12:56:22.103Z,2.10
2018-03-02T12:58:50.389Z,2.14
2018-03-02T13:01:18.655Z,1.90
2018-03-02T13:03:47.037Z,2.21
2018-03-02T13:06:15.392Z,2.38
2018-03-02T13:08:43.698Z,2.37
2018-03-02T13:11:12.021Z,2.15
2018-03-02T13:13:40.333Z,2.09
2018-03-02T13:16:08.598Z,2.30
2018-03-02T13:18:43.791Z,2.35
2018-03-02T13:21:12.898Z,2.51
2018-03-02T13:23:41.180Z,2.36
2018-03-02T13:26:09.468Z,2.36
2018-03-02T13:28:49.328Z,2.11
2018-03-02T13:31:17.639Z,2.22
2018-03-02T13:34:04.328Z,2.38
2018-03-02T13:36:32.679Z,2.17
2018-03-02T13:39:01.012Z,2.13
2018-03-02T13:41:47.973Z,1.81
2018-03-02T13:44:16.780Z,1.84
2018-03-02T13:46:45.054Z,1.86
2018-03-02T13:49:30.994Z,1.87
2018-03-02T13:51:59.310Z,1.89
2018-03-02T13:54:27.732Z,1.98
2018-03-02T13:57:13.114Z,1.96
2018-03-02T13:59:41.464Z,1.97
2018-03-02T14:05:05.518Z,1.82
2018-03-02T14:07:33.820Z,2.13
2018-03-02T14:10:02.168Z,2.06
2018-03-02T14:12:30.463Z,2.00
2018-03-02T14:14:59.479Z,2.07
2018-03-02T14:17:29.367Z,2.08
2018-03-02T14:19:57.657Z,2.19
2018-03-02T14:22:26.238Z,1.81
2018-03-02T14:24:54.827Z,2.02
2018-03-02T14:27:23.224Z,1.96
2018-03-02T14:29:52.404Z,1.99
2018-03-02T14:32:20.887Z,2.03
2018-03-02T14:34:50.870Z,2.01
2018-03-02T14:37:19.166Z,2.01
2018-03-02T14:39:47.490Z,2.19
2018-03-02T14:42:15.767Z,2.29
2018-03-02T14:44:44.066Z,2.32
2018-03-02T14:47:12.549Z,2.53
2018-03-02T14:49:40.819Z,2.29
2018-03-02T14:52:09.506Z,2.38
2018-03-02T14:54:37.887Z,2.41
2018-03-02T14:57:06.386Z,2.28
2018-03-02T14:59:35.431Z,2.42
2018-03-02T15:02:03.726Z,1.97
2018-03-02T15:04:32.896Z,2.00
2018-03-02T15:07:01.204Z,2.05
2018-03-02T15:09:29.541Z,2.00
2018-03-02T15:11:58.679Z,2.01
2018-03-02T15:14:26.957Z,2.07
2018-03-02T15:16:55.659Z,1.94
2018-03-02T15:19:25.556Z,1.91
2018-03-02T15:21:54.594Z,1.91
2018-03-02T15:24:24.725Z,1.91
2018-03-02T15:26:53.204Z,1.94
2018-03-02T15:29:23.117Z,1.64
2018-03-02T15:31:52.183Z,1.85
2018-03-02T15:34:21.448Z,1.72
2018-03-02T15:36:49.722Z,1.72
2018-03-02T15:39:18.368Z,1.69
2018-03-02T15:41:47.473Z,1.58
2018-03-02T15:44:15.749Z,1.61
2018-03-02T15:46:44.020Z,1.58
2018-03-02T15:49:12.301Z,1.49
2018-03-02T15:51:40.626Z,1.37
2018-03-02T15:54:09.657Z,1.41
2018-03-02T15:56:38.748Z,1.43
2018-03-02T15:59:07.039Z,1.42
2018-03-02T16:01:36.168Z,1.35
2018-03-02T16:04:04.442Z,1.39
2018-03-02T16:06:33.970Z,1.42
2018-03-02T16:09:04.075Z,1.38
2018-03-02T16:11:33.039Z,1.39
2018-03-02T16:14:01.473Z,1.34
2018-03-02T16:16:30.290Z,1.31
2018-03-02T16:18:58.772Z,1.29
2018-03-02T16:21:27.137Z,1.35
2018-03-02T16:23:56.441Z,1.38
2018-03-02T16:26:25.765Z,1.30
2018-03-02T16:28:54.097Z,1.21
2018-03-02T16:31:23.135Z,1.12
2018-03-02T16:33:51.443Z,1.11
2018-03-02T16:36:20.018Z,0.86
2018-03-02T16:38:48.604Z,0.94
2018-03-02T16:41:17.781Z,0.90
2018-03-02T16:43:46.031Z,0.85
2018-03-02T16:46:14.308Z,1.02
2018-03-02T16:48:42.608Z,1.02
2018-03-02T16:51:10.970Z,0.98
2018-03-02T16:53:39.363Z,0.96
2018-03-02T16:56:07.678Z,1.07
2018-03-02T16:58:36.713Z,1.07
2018-03-02T17:01:04.985Z,0.98
2018-03-02T17:03:33.467Z,0.87
2018-03-02T17:06:01.742Z,0.78
2018-03-02T17:08:30.063Z,0.77
2018-03-02T17:10:58.335Z,0.86
2018-03-02T17:13:26.647Z,0.78
2018-03-02T17:15:54.890Z,0.86
2018-03-02T17:18:23.935Z,0.80
2018-03-02T17:20:52.229Z,0.50
2018-03-02T17:23:20.479Z,0.52
2018-03-02T17:25:48.762Z,0.49
2018-03-02T17:28:17.051Z,0.54
2018-03-02T17:30:45.322Z,0.22
2018-03-02T17:33:13.937Z,0.08
2018-03-02T17:35:43.009Z,0.20
2018-03-02T17:38:11.357Z,0.17
2018-03-02T17:40:39.633Z,0.28
2018-03-02T17:43:08.050Z,0.24
2018-03-02T17:45:36.384Z,0.07
2018-03-02T17:48:04.673Z,0.37
2018-03-02T17:50:32.943Z,0.39
2018-03-02T17:53:01.258Z,0.72
2018-03-02T17:55:29.571Z,0.54
2018-03-02T17:57:58.828Z,0.23
2018-03-02T18:00:27.089Z,-0.05
2018-03-02T18:02:55.704Z,-0.13
2018-03-02T18:05:23.988Z,-0.30
2018-03-02T18:07:52.282Z,-0.48
2018-03-02T18:10:20.853Z,-0.35
2018-03-02T18:12:50.497Z,-0.64
2018-03-02T18:15:18.797Z,-0.82
2018-03-02T18:17:47.976Z,-0.76
2018-03-02T18:20:17.123Z,-0.65
2018-03-02T18:22:46.232Z,-0.52
2018-03-02T18:25:14.666Z,-0.38
2018-03-02T18:27:42.978Z,-0.27
2018-03-02T18:30:15.777Z,-0.62
2018-03-02T18:32:44.041Z,-0.53
2018-03-02T18:35:12.406Z,-0.54
2018-03-02T18:37:41.671Z,-0.73
2018-03-02T18:40:09.980Z,-0.64
2018-03-02T18:42:39.277Z,-0.44
2018-03-02T18:45:07.649Z,-0.83
2018-03-02T18:47:37.875Z,-1.01
2018-03-02T18:50:06.207Z,-0.79
2018-03-02T18:52:34.495Z,-0.65
2018-03-02T18:55:02.799Z,-0.85
2018-03-02T18:57:31.218Z,-0.71
2018-03-02T18:59:59.491Z,-0.58
2018-03-02T19:02:29.716Z,-0.54
2018-03-02T19:04:58.179Z,-0.70
2018-03-02T19:07:26.456Z,-0.65
2018-03-02T19:09:54.926Z,-0.71
2018-03-02T19:12:23.212Z,-0.93
2018-03-02T19:14:51.529Z,-0.73
2018-03-02T19:17:20.600Z,-0.61
2018-03-02T19:19:48.994Z,-0.55
2018-03-02T19:22:17.368Z,-0.58
2018-03-02T19:24:46.368Z,-0.52
2018-03-02T19:27:14.936Z,-0.63
2018-03-02T19:29:43.224Z,-0.60
2018-03-02T19:32:11.630Z,-0.72
2018-03-02T19:34:40.716Z,-0.49
2018-03-02T19:37:09.663Z,-0.44
2018-03-02T19:39:37.991Z,-0.47
2018-03-02T19:42:07.047Z,-0.51
2018-03-02T19:44:35.524Z,-0.45
2018-03-02T19:47:03.823Z,-0.58
2018-03-02T19:49:32.903Z,-0.46
2018-03-02T19:52:01.254Z,-0.37
2018-03-02T19:54:29.549Z,-0.52
2018-03-02T19:56:57.924Z,-0.36
2018-03-02T19:59:27.296Z,-0.40
2018-03-02T20:01:55.692Z,-0.29
2018-03-02T20:04:24.014Z,-0.30
2018-03-02T20:06:53.163Z,-0.44
2018-03-02T20:09:21.646Z,-0.52
2018-03-02T20:11:49.942Z,-0.68
2018-03-02T20:14:18.300Z,-0.56
2018-03-02T20:16:47.724Z,-0.67
2018-03-02T20:19:16.015Z,-0.51
2018-03-02T20:21:44.294Z,-0.34
2018-03-02T20:24:13.382Z,-0.58
2018-03-02T20:26:42.661Z,-0.57
2018-03-02T20:29:11.040Z,-0.47
2018-03-02T20:31:39.360Z,-0.54
2018-03-02T20:34:07.911Z,-0.49
2018-03-02T20:36:37.037Z,-0.44
2018-03-02T20:39:05.469Z,-0.75
2018-03-02T20:41:33.910Z,-0.62
2018-03-02T20:44:03.168Z,-0.66
2018-03-02T20:46:32.217Z,-0.66
2018-03-02T20:49:01.716Z,-0.57
2018-03-02T20:54:04.703Z,-0.63
2018-03-02T20:56:33.018Z,-0.53
2018-03-02T20:59:01.428Z,-0.59
2018-03-02T21:01:30.623Z,-0.67
2018-03-02T21:03:59.651Z,-0.53
2018-03-02T21:06:27.978Z,-0.60
2018-03-02T21:08:57.148Z,-0.64
2018-03-02T21:11:25.476Z,-0.52
2018-03-02T21:13:54.617Z,-0.59
2018-03-02T21:16:22.936Z,-0.52
2018-03-02T21:18:51.991Z,-0.47
2018-03-02T21:21:20.304Z,-0.52
2018-03-02T21:23:49.444Z,-0.46
2018-03-02T21:26:17.769Z,-0.44
2018-03-02T21:28:47.632Z,-0.29
2018-03-02T21:31:16.826Z,-0.36
2018-03-02T21:33:45.103Z,-0.41
2018-03-02T21:36:13.584Z,-0.29
2018-03-02T21:38:43.782Z,-0.30
2018-03-02T21:41:13.110Z,-0.27
2018-03-02T21:43:42.431Z,-0.27
2018-03-02T21:46:10.822Z,-0.20
2018-03-02T21:48:39.919Z,-0.11
2018-03-02T21:51:08.962Z,-0.26
2018-03-02T21:53:37.364Z,-0.18
2018-03-02T21:56:05.689Z,-0.08
2018-03-02T21:58:36.956Z,-0.26
2018-03-02T22:01:05.240Z,-0.24
2018-03-02T22:03:33.548Z,-0.14
2018-03-02T22:06:01.853Z,-0.27
2018-03-02T22:08:31.320Z,-0.31
2018-03-02T22:11:00.021Z,-0.11
2018-03-02T22:13:29.080Z,-0.13
2018-03-02T22:15:57.409Z,-0.15
2018-03-02T22:18:25.716Z,-0.13
2018-03-02T22:20:54.001Z,-0.06
2018-03-02T22:23:22.796Z,-0.08
2018-03-02T22:25:53.840Z,-0.24
2018-03-02T22:28:22.498Z,-0.24
2018-03-02T22:30:50.792Z,-0.16
2018-03-02T22:33:19.300Z,-0.19
2018-03-02T22:35:48.263Z,-0.19
2018-03-02T22:38:16.549Z,-0.35
2018-03-02T22:40:44.916Z,-0.32
2018-03-02T22:43:13.402Z,-0.31
2018-03-02T22:45:41.794Z,-0.14
2018-03-02T22:48:10.708Z,-0.18
2018-03-02T22:50:39.657Z,-0.17
2018-03-02T22:53:07.951Z,-0.16
2018-03-02T22:55:36.247Z,-0.25
2018-03-02T22:58:05.096Z,-0.23
2018-03-02T23:00:33.543Z,-0.20
2018-03-02T23:03:01.964Z,-0.14
2018-03-02T23:05:30.296Z,-0.21
2018-03-02T23:07:58.709Z,-0.25
2018-03-02T23:10:27.093Z,-0.22
2018-03-02T23:12:55.428Z,-0.07
2018-03-02T23:15:24.570Z,-0.05
2018-03-02T23:17:53.163Z,-0.06
2018-03-02T23:20:21.495Z,-0.04
2018-03-02T23:22:49.970Z,0.03
2018-03-02T23:25:18.281Z,0.09
2018-03-02T23:27:46.554Z,0.03
2018-03-02T23:30:14.811Z,0.10
2018-03-02T23:32:43.963Z,0.23
2018-03-02T23:35:12.272Z,0.22
2018-03-02T23:37:40.570Z,0.15
2018-03-02T23:40:08.884Z,0.19
2018-03-02T23:42:38.267Z,0.11
2018-03-02T23:45:07.355Z,0.07
2018-03-02T23:47:35.629Z,-0.04
2018-03-02T23:50:04.710Z,0.07
2018-03-02T23:52:32.992Z,-0.01
2018-03-02T23:55:01.339Z,-0.23
2018-03-02T23:57:29.653Z,-0.12
2018-03-02T23:59:57.911Z,0.02
